createdAt,value
2022-10-11T00:00:40.454Z,99.83
2022-10-11T00:01:27.307Z,99.74
2022-10-11T00:02:14.221Z,99.79
2022-10-11T00:03:01.158Z,99.86
2022-10-11T00:03:47.970Z,99.89
2022-10-11T00:04:34.840Z,99.84
2022-10-11T00:05:21.600Z,99.94
2022-10-11T00:06:09.595Z,99.99
2022-10-11T00:06:56.554Z,99.96
2022-10-11T00:07:43.472Z,100.00
2022-10-11T00:08:31.202Z,100.00
2022-10-11T00:09:17.922Z,100.00
2022-10-11T00:10:06.237Z,100.00
2022-10-11T00:10:58.319Z,100.00
2022-10-11T00:11:45.621Z,100.00
2022-10-11T00:12:32.883Z,100.00
2022-10-11T00:13:19.671Z,100.00
2022-10-11T00:14:06.872Z,99.82
2022-10-11T00:14:53.643Z,99.54
2022-10-11T00:15:41.181Z,99.27
2022-10-11T00:16:28.040Z,99.16
2022-10-11T00:17:14.956Z,99.30
2022-10-11T00:18:05.296Z,99.32
2022-10-11T00:18:52.202Z,99.41
2022-10-11T00:19:38.941Z,99.53
2022-10-11T00:20:26.721Z,99.60
2022-10-11T00:21:14.742Z,99.71
2022-10-11T00:22:01.722Z,99.58
2022-10-11T00:22:49.621Z,99.20
2022-10-11T00:23:37.231Z,99.03
2022-10-11T00:24:24.061Z,99.09
2022-10-11T00:25:12.191Z,99.19
2022-10-11T00:26:03.696Z,99.47
2022-10-11T00:26:50.810Z,99.59
2022-10-11T00:27:38.131Z,99.66
2022-10-11T00:28:25.159Z,99.65
2022-10-11T00:29:12.948Z,99.48
2022-10-11T00:29:59.727Z,99.18
2022-10-11T00:30:46.543Z,99.02
2022-10-11T00:31:35.691Z,99.00
2022-10-11T00:32:23.181Z,99.02
2022-10-11T00:33:09.942Z,98.90
2022-10-11T00:33:56.840Z,99.04
2022-10-11T00:34:43.586Z,99.34
2022-10-11T00:35:30.425Z,99.50
2022-10-11T00:36:17.808Z,99.45
2022-10-11T00:37:04.577Z,99.19
2022-10-11T00:37:51.390Z,98.90
2022-10-11T00:38:38.163Z,98.77
2022-10-11T00:39:25.031Z,98.58
2022-10-11T00:40:15.921Z,98.42
2022-10-11T00:41:02.743Z,98.44
2022-10-11T00:41:49.701Z,98.46
2022-10-11T00:42:36.652Z,98.52
2022-10-11T00:43:26.424Z,98.45
2022-10-11T00:44:19.184Z,98.78
2022-10-11T00:45:27.730Z,98.99
2022-10-11T00:46:17.481Z,98.98
2022-10-11T00:47:08.161Z,98.88
2022-10-11T00:47:55.311Z,98.96
2022-10-11T00:48:55.742Z,98.89
2022-10-11T00:49:43.140Z,98.86
2022-10-11T00:50:33.330Z,98.73
2022-10-11T00:51:28.941Z,98.38
2022-10-11T00:52:23.601Z,98.07
2022-10-11T00:53:11.640Z,97.75
2022-10-11T00:53:59.861Z,97.72
2022-10-11T00:54:48.341Z,97.83
2022-10-11T00:55:39.401Z,97.77
2022-10-11T00:56:33.480Z,97.85
2022-10-11T00:57:23.150Z,97.78
2022-10-11T00:58:11.210Z,97.88
2022-10-11T00:58:58.591Z,97.88
2022-10-11T00:59:49.161Z,97.82
2022-10-11T01:00:35.801Z,97.84
2022-10-11T01:01:22.707Z,97.99
2022-10-11T01:02:10.433Z,97.99
2022-10-11T01:02:57.365Z,97.87
2022-10-11T01:03:44.539Z,98.04
2022-10-11T01:04:31.486Z,97.99
2022-10-11T01:05:29.146Z,98.09
2022-10-11T01:06:16.332Z,98.16
2022-10-11T01:07:03.541Z,97.98
2022-10-11T01:07:51.132Z,97.81
2022-10-11T01:08:39.001Z,97.92
2022-10-11T01:09:26.842Z,98.06
2022-10-11T01:10:14.060Z,98.45
2022-10-11T01:11:01.034Z,98.53
2022-10-11T01:11:48.420Z,98.41
2022-10-11T01:12:35.720Z,98.21
2022-10-11T01:13:56.323Z,98.30
2022-10-11T01:14:53.271Z,98.50
2022-10-11T01:15:51.265Z,98.54
2022-10-11T01:16:47.020Z,98.84
2022-10-11T01:17:51.832Z,99.37
2022-10-11T01:18:44.491Z,99.27
2022-10-11T01:20:00.332Z,99.28
2022-10-11T01:21:02.233Z,99.04
2022-10-11T01:21:58.061Z,98.62
2022-10-11T01:23:29.952Z,98.52
2022-10-11T01:24:22.722Z,98.42
2022-10-11T01:25:24.767Z,98.53
2022-10-11T01:26:20.622Z,98.39
2022-10-11T01:27:26.203Z,98.34
2022-10-11T01:28:37.460Z,98.37
2022-10-11T01:29:36.513Z,98.48
2022-10-11T01:30:32.361Z,98.45
2022-10-11T01:31:26.845Z,98.32
2022-10-11T01:32:30.761Z,98.44
2022-10-11T01:33:37.951Z,98.54
2022-10-11T01:34:40.943Z,98.76
2022-10-11T01:35:36.692Z,98.92
2022-10-11T01:37:05.278Z,98.96
2022-10-11T01:37:58.061Z,98.93
2022-10-11T01:38:49.721Z,98.77
2022-10-11T01:40:16.360Z,98.52
2022-10-11T01:41:10.462Z,98.39
2022-10-11T01:42:00.549Z,98.45
2022-10-11T01:42:47.821Z,98.33
2022-10-11T01:43:35.791Z,98.54
2022-10-11T01:44:25.052Z,98.84
2022-10-11T01:45:15.900Z,98.90
2022-10-11T01:46:03.798Z,99.12
2022-10-11T01:46:52.302Z,98.88
2022-10-11T01:47:39.310Z,98.63
2022-10-11T01:48:26.161Z,98.65
2022-10-11T01:49:12.960Z,98.74
2022-10-11T01:50:01.460Z,98.77
2022-10-11T01:50:50.941Z,98.96
2022-10-11T01:51:46.482Z,98.90
2022-10-11T01:52:36.321Z,98.64
2022-10-11T01:53:35.271Z,98.50
2022-10-11T01:54:56.946Z,98.40
2022-10-11T01:55:58.281Z,98.40
2022-10-11T01:57:24.074Z,98.40
2022-10-11T01:58:15.482Z,98.35
2022-10-11T01:59:15.551Z,99.07
2022-10-11T02:00:14.511Z,99.30
2022-10-11T02:01:31.240Z,99.27
2022-10-11T02:02:20.971Z,99.44
2022-10-11T02:03:27.720Z,99.47
2022-10-11T02:04:36.352Z,99.29
2022-10-11T02:05:44.331Z,99.24
2022-10-11T02:06:52.033Z,99.50
2022-10-11T02:07:47.922Z,99.48
2022-10-11T02:08:37.964Z,99.46
2022-10-11T02:09:26.563Z,99.39
2022-10-11T02:10:19.526Z,99.40
2022-10-11T02:11:29.534Z,99.46
2022-10-11T02:12:23.962Z,99.49
2022-10-11T02:13:23.712Z,99.45
2022-10-11T02:14:17.136Z,99.13
2022-10-11T02:15:08.401Z,99.09
2022-10-11T02:15:56.041Z,99.09
2022-10-11T02:17:01.522Z,99.11
2022-10-11T02:17:51.801Z,99.09
2022-10-11T02:18:42.831Z,99.07
2022-10-11T02:19:33.511Z,98.99
2022-10-11T02:20:22.031Z,98.84
2022-10-11T02:21:11.331Z,98.87
2022-10-11T02:22:03.508Z,98.73
2022-10-11T02:22:52.022Z,98.54
2022-10-11T02:23:45.820Z,98.47
2022-10-11T02:24:35.001Z,98.44
2022-10-11T02:25:27.762Z,98.43
2022-10-11T02:26:14.990Z,98.47
2022-10-11T02:27:03.623Z,98.77
2022-10-11T02:27:52.371Z,98.77
2022-10-11T02:28:42.539Z,99.23
2022-10-11T02:29:31.481Z,99.55
2022-10-11T02:30:18.412Z,99.65
2022-10-11T02:31:07.104Z,99.61
2022-10-11T02:31:54.793Z,99.71
2022-10-11T02:32:44.570Z,99.77
2022-10-11T02:33:39.642Z,99.98
2022-10-11T02:34:43.735Z,99.98
2022-10-11T02:35:34.363Z,99.93
2022-10-11T02:36:31.461Z,99.80
2022-10-11T02:37:33.291Z,100.00
2022-10-11T02:38:23.920Z,100.00
2022-10-11T02:39:18.801Z,100.00
2022-10-11T02:40:18.541Z,100.00
2022-10-11T02:41:15.452Z,100.00
2022-10-11T02:42:05.620Z,100.00
2022-10-11T02:43:00.001Z,100.00
2022-10-11T02:44:00.279Z,100.00
2022-10-11T02:44:53.610Z,100.00
2022-10-11T02:46:17.740Z,100.00
2022-10-11T02:47:04.890Z,99.79
2022-10-11T02:47:51.803Z,99.83
2022-10-11T02:48:39.925Z,99.73
2022-10-11T02:49:28.373Z,99.64
2022-10-11T02:50:15.613Z,99.49
2022-10-11T02:51:03.611Z,99.55
2022-10-11T02:51:50.419Z,99.80
2022-10-11T02:52:37.200Z,99.75
2022-10-11T02:53:25.801Z,99.63
2022-10-11T02:54:12.669Z,99.49
2022-10-11T02:54:59.570Z,99.39
2022-10-11T02:55:47.069Z,99.34
2022-10-11T02:56:33.921Z,99.24
2022-10-11T02:57:20.691Z,99.32
2022-10-11T02:58:07.469Z,99.57
2022-10-11T02:58:54.239Z,99.56
2022-10-11T02:59:41.017Z,99.46
2022-10-11T03:00:28.121Z,99.31
2022-10-11T03:01:15.483Z,99.26
2022-10-11T03:02:02.524Z,99.26
2022-10-11T03:02:49.464Z,99.39
2022-10-11T03:03:36.269Z,99.48
2022-10-11T03:04:23.021Z,99.51
2022-10-11T03:05:10.004Z,99.55
2022-10-11T03:06:01.488Z,99.42
2022-10-11T03:06:48.581Z,99.30
2022-10-11T03:07:35.508Z,100.00
2022-10-11T03:08:22.261Z,100.00
2022-10-11T03:09:09.022Z,100.00
2022-10-11T03:09:55.801Z,100.00
2022-10-11T03:10:42.901Z,100.00
2022-10-11T03:11:29.770Z,99.88
2022-10-11T03:12:16.572Z,99.80
2022-10-11T03:13:03.563Z,99.65
2022-10-11T03:13:51.643Z,99.62
2022-10-11T03:14:38.442Z,99.48
2022-10-11T03:15:25.331Z,99.48
2022-10-11T03:16:12.371Z,99.53
2022-10-11T03:17:17.179Z,99.62
2022-10-11T03:18:07.499Z,99.69
2022-10-11T03:18:54.320Z,99.58
2022-10-11T03:19:41.221Z,99.89
2022-10-11T03:20:28.040Z,99.99
2022-10-11T03:21:14.930Z,100.00
2022-10-11T03:22:01.701Z,100.00
2022-10-11T03:22:48.602Z,100.00
2022-10-11T03:23:35.533Z,100.00
2022-10-11T03:24:22.454Z,100.00
2022-10-11T03:25:09.649Z,100.00
2022-10-11T03:25:56.580Z,99.78
2022-10-11T03:26:43.370Z,99.64
2022-10-11T03:27:30.152Z,99.52
2022-10-11T03:28:16.973Z,99.38
2022-10-11T03:29:03.838Z,99.27
2022-10-11T03:29:50.610Z,99.19
2022-10-11T03:30:37.409Z,99.15
2022-10-11T03:31:24.268Z,99.18
2022-10-11T03:32:11.032Z,99.21
2022-10-11T03:32:57.961Z,99.41
2022-10-11T03:33:45.103Z,99.44
2022-10-11T03:34:31.923Z,99.37
2022-10-11T03:35:18.900Z,99.48
2022-10-11T03:36:06.412Z,99.73
2022-10-11T03:36:53.512Z,99.96
2022-10-11T03:37:40.390Z,100.00
2022-10-11T03:38:27.139Z,100.00
2022-10-11T03:39:13.961Z,100.00
2022-10-11T03:40:00.771Z,100.00
2022-10-11T03:40:48.051Z,100.00
2022-10-11T03:41:34.911Z,100.00
2022-10-11T03:42:21.680Z,100.00
2022-10-11T03:43:08.661Z,100.00
2022-10-11T03:43:55.511Z,100.00
2022-10-11T03:44:42.341Z,100.00
2022-10-11T03:45:29.161Z,100.00
2022-10-11T03:46:16.042Z,100.00
2022-10-11T03:47:02.861Z,100.00
2022-10-11T03:47:49.692Z,100.00
2022-10-11T03:48:36.568Z,100.00
2022-10-11T03:49:23.771Z,100.00
2022-10-11T03:50:10.633Z,100.00
2022-10-11T03:50:57.410Z,100.00
2022-10-11T03:51:44.242Z,100.00
2022-10-11T03:52:31.030Z,100.00
2022-10-11T03:53:17.912Z,100.00
2022-10-11T03:54:04.729Z,100.00
2022-10-11T03:54:51.501Z,100.00
2022-10-11T03:55:40.417Z,100.00
2022-10-11T03:56:27.242Z,100.00
2022-10-11T03:57:14.312Z,100.00
2022-10-11T03:58:01.133Z,100.00
2022-10-11T03:58:47.921Z,100.00
2022-10-11T03:59:34.726Z,100.00
2022-10-11T04:00:21.581Z,100.00
2022-10-11T04:01:09.091Z,100.00
2022-10-11T04:01:55.976Z,100.00
2022-10-11T04:02:42.942Z,100.00
2022-10-11T04:03:30.123Z,100.00
2022-10-11T04:04:16.912Z,100.00
2022-10-11T04:05:06.111Z,100.00
2022-10-11T04:05:52.971Z,99.70
2022-10-11T04:06:39.771Z,99.58
2022-10-11T04:07:26.691Z,99.67
2022-10-11T04:08:13.608Z,99.63
2022-10-11T04:09:00.543Z,99.66
2022-10-11T04:09:47.341Z,99.57
2022-10-11T04:10:34.234Z,99.67
2022-10-11T04:11:21.350Z,99.86
2022-10-11T04:12:08.571Z,99.90
2022-10-11T04:12:55.450Z,99.78
2022-10-11T04:13:42.195Z,99.76
2022-10-11T04:14:29.012Z,99.77
2022-10-11T04:15:16.745Z,99.99
2022-10-11T04:16:04.054Z,100.00
2022-10-11T04:16:51.040Z,100.00
2022-10-11T04:17:37.871Z,100.00
2022-10-11T04:18:24.777Z,100.00
2022-10-11T04:19:12.160Z,100.00
2022-10-11T04:20:01.359Z,100.00
2022-10-11T04:21:47.271Z,100.00
2022-10-11T04:23:05.961Z,100.00
2022-10-11T04:24:33.518Z,100.00
2022-10-11T04:25:35.661Z,100.00
2022-10-11T04:26:49.690Z,100.00
2022-10-11T04:27:40.412Z,100.00
2022-10-11T04:28:56.950Z,100.00
2022-10-11T04:29:43.777Z,100.00
2022-10-11T04:30:30.882Z,100.00
2022-10-11T04:31:17.664Z,99.76
2022-10-11T04:32:04.560Z,99.58
2022-10-11T04:32:51.491Z,99.39
2022-10-11T04:33:38.252Z,99.40
2022-10-11T04:40:54.331Z,99.91
2022-10-11T04:43:04.821Z,100.00
2022-10-11T04:54:59.583Z,99.97
2022-10-11T04:55:59.032Z,99.85
2022-10-11T04:56:45.870Z,99.71
2022-10-11T04:57:32.683Z,99.75
2022-10-11T04:58:19.499Z,99.69
2022-10-11T04:59:06.330Z,99.87
2022-10-11T04:59:53.102Z,100.00
2022-10-11T05:00:39.881Z,100.00
2022-10-11T05:01:48.931Z,100.00
2022-10-11T05:02:35.716Z,100.00
2022-10-11T05:03:22.791Z,100.00
2022-10-11T05:04:09.562Z,100.00
2022-10-11T05:04:56.549Z,100.00
2022-10-11T05:05:47.962Z,100.00
2022-10-11T05:14:03.661Z,100.00
2022-10-11T05:14:50.481Z,99.97
2022-10-11T05:15:37.290Z,99.80
2022-10-11T05:16:24.228Z,99.77
2022-10-11T05:25:47.865Z,99.23
2022-10-11T05:26:44.540Z,99.29
2022-10-11T05:32:00.905Z,98.74
2022-10-11T05:32:49.581Z,98.84
2022-10-11T05:33:37.622Z,98.89
2022-10-11T05:34:25.790Z,99.02
2022-10-11T05:35:13.340Z,99.11
2022-10-11T05:36:00.861Z,99.13
2022-10-11T05:36:48.429Z,99.07
2022-10-11T05:37:36.072Z,98.97
2022-10-11T05:38:24.038Z,98.90
2022-10-11T05:39:12.516Z,98.76
2022-10-11T05:40:00.353Z,99.13
2022-10-11T05:40:47.242Z,99.08
2022-10-11T05:41:34.262Z,98.66
2022-10-11T05:42:25.571Z,98.26
2022-10-11T05:43:13.853Z,98.09
2022-10-11T05:44:01.152Z,97.88
2022-10-11T05:45:57.625Z,97.87
2022-10-11T05:46:51.121Z,97.93
2022-10-11T05:47:38.713Z,97.51
2022-10-11T05:48:32.061Z,97.76
2022-10-11T05:49:19.177Z,97.74
2022-10-11T05:50:46.141Z,97.82
2022-10-11T05:51:33.200Z,97.55
2022-10-11T05:52:21.719Z,97.10
2022-10-11T05:53:08.539Z,96.88
2022-10-11T05:53:55.301Z,96.34
2022-10-11T05:54:42.124Z,96.87
2022-10-11T05:55:29.002Z,96.99
2022-10-11T05:56:21.489Z,96.71
2022-10-11T05:57:08.237Z,96.60
2022-10-11T05:57:56.251Z,96.72
2022-10-11T05:58:43.042Z,97.05
2022-10-11T05:59:29.984Z,96.75
2022-10-11T06:00:17.025Z,96.22
2022-10-11T06:01:03.897Z,96.29
2022-10-11T06:01:51.005Z,96.41
2022-10-11T06:02:37.758Z,96.13
2022-10-11T06:03:24.856Z,96.11
2022-10-11T06:04:12.021Z,95.72
2022-10-11T06:04:58.744Z,95.47
2022-10-11T06:05:45.900Z,95.07
2022-10-11T06:06:32.591Z,94.85
2022-10-11T06:07:19.313Z,94.93
2022-10-11T06:08:08.836Z,95.02
2022-10-11T06:08:55.749Z,94.85
2022-10-11T06:09:42.642Z,94.74
2022-10-11T06:10:29.928Z,95.32
2022-10-11T06:11:21.382Z,95.64
2022-10-11T06:12:08.240Z,95.32
2022-10-11T06:12:55.256Z,94.97
2022-10-11T06:13:42.411Z,94.73
2022-10-11T06:14:29.641Z,94.50
2022-10-11T06:15:16.800Z,94.49
2022-10-11T06:16:07.786Z,94.29
2022-10-11T06:16:54.851Z,94.25
2022-10-11T06:17:42.031Z,94.08
2022-10-11T06:18:29.021Z,94.10
2022-10-11T06:19:15.901Z,94.32
2022-10-11T06:20:04.090Z,94.39
2022-10-11T06:20:50.994Z,94.38
2022-10-11T06:21:37.850Z,94.23
2022-10-11T06:22:24.783Z,93.88
2022-10-11T06:23:12.382Z,93.55
2022-10-11T06:24:02.091Z,93.44
2022-10-11T06:24:49.741Z,93.17
2022-10-11T06:25:36.600Z,93.52
2022-10-11T06:26:23.700Z,93.66
2022-10-11T06:27:10.715Z,93.67
2022-10-11T06:27:57.560Z,93.76
2022-10-11T06:28:44.563Z,93.58
2022-10-11T06:29:31.621Z,93.78
2022-10-11T06:30:18.551Z,93.93
2022-10-11T06:31:06.352Z,93.85
2022-10-11T06:31:53.281Z,93.92
2022-10-11T06:32:40.131Z,93.94
2022-10-11T06:33:27.470Z,93.79
2022-10-11T06:34:14.343Z,93.71
2022-10-11T06:35:03.805Z,93.62
2022-10-11T06:35:57.251Z,93.41
2022-10-11T06:36:44.132Z,93.40
2022-10-11T06:37:30.811Z,93.57
2022-10-11T06:38:17.742Z,93.26
2022-10-11T06:39:05.061Z,93.53
2022-10-11T06:39:51.860Z,93.73
2022-10-11T06:40:38.800Z,93.58
2022-10-11T06:41:28.029Z,93.37
2022-10-11T06:42:14.906Z,92.79
2022-10-11T06:43:01.803Z,92.68
2022-10-11T06:43:51.612Z,92.58
2022-10-11T06:44:39.538Z,92.76
2022-10-11T06:45:26.497Z,92.58
2022-10-11T06:46:13.391Z,92.53
2022-10-11T06:47:00.320Z,92.50
2022-10-11T06:47:47.101Z,92.53
2022-10-11T06:48:34.102Z,92.40
2022-10-11T06:49:23.432Z,92.15
2022-10-11T06:50:10.451Z,92.03
2022-10-11T06:51:00.890Z,91.77
2022-10-11T06:51:48.539Z,91.58
2022-10-11T06:52:35.374Z,91.61
2022-10-11T06:53:22.191Z,91.58
2022-10-11T06:54:10.123Z,91.22
2022-10-11T06:54:57.759Z,91.55
2022-10-11T06:55:44.680Z,91.68
2022-10-11T06:56:32.161Z,91.56
2022-10-11T06:57:19.117Z,91.31
2022-10-11T06:58:05.935Z,91.02
2022-10-11T06:58:54.011Z,90.43
2022-10-11T06:59:40.801Z,90.09
2022-10-11T07:00:28.161Z,90.03
2022-10-11T07:01:20.715Z,90.02
2022-10-11T07:02:08.901Z,89.77
2022-10-11T07:02:55.831Z,88.61
2022-10-11T07:03:42.941Z,88.59
2022-10-11T07:04:29.988Z,88.66
2022-10-11T07:05:17.811Z,88.80
2022-10-11T07:06:07.313Z,88.49
2022-10-11T07:06:54.511Z,88.22
2022-10-11T07:07:41.311Z,88.03
2022-10-11T07:08:28.645Z,87.79
2022-10-11T07:09:15.416Z,87.49
2022-10-11T07:10:02.241Z,87.62
2022-10-11T07:10:49.097Z,87.66
2022-10-11T07:11:36.414Z,87.82
2022-10-11T07:12:23.305Z,87.87
2022-10-11T07:13:14.831Z,88.03
2022-10-11T07:14:08.138Z,87.90
2022-10-11T07:14:55.072Z,87.59
2022-10-11T07:15:41.981Z,87.52
2022-10-11T07:16:29.216Z,87.47
2022-10-11T07:17:16.140Z,86.75
2022-10-11T07:18:03.091Z,86.10
2022-10-11T07:18:58.775Z,86.10
2022-10-11T07:19:47.524Z,85.45
2022-10-11T07:20:34.380Z,84.97
2022-10-11T07:21:21.216Z,84.25
2022-10-11T07:22:08.139Z,84.33
2022-10-11T07:22:55.187Z,84.02
2022-10-11T07:23:42.531Z,83.90
2022-10-11T07:24:29.696Z,83.92
2022-10-11T07:25:16.570Z,84.13
2022-10-11T07:26:04.050Z,83.63
2022-10-11T07:26:51.363Z,83.16
2022-10-11T07:27:38.582Z,82.58
2022-10-11T07:28:26.061Z,82.16
2022-10-11T07:29:13.251Z,81.59
2022-10-11T07:30:00.073Z,81.01
2022-10-11T07:30:47.201Z,80.00
2022-10-11T07:31:34.031Z,80.30
2022-10-11T07:32:20.998Z,80.25
2022-10-11T07:33:07.831Z,80.00
2022-10-11T07:33:54.783Z,80.14
2022-10-11T07:34:41.635Z,79.04
2022-10-11T07:35:28.561Z,78.83
2022-10-11T07:36:16.301Z,78.60
2022-10-11T07:37:03.191Z,78.38
2022-10-11T07:37:50.383Z,77.96
2022-10-11T07:38:41.092Z,79.03
2022-10-11T07:39:28.111Z,78.94
2022-10-11T07:40:15.190Z,78.10
2022-10-11T07:41:06.324Z,77.73
2022-10-11T07:41:53.199Z,77.49
2022-10-11T07:42:40.060Z,77.93
2022-10-11T07:43:26.966Z,78.37
2022-10-11T07:44:14.810Z,78.23
2022-10-11T07:45:01.675Z,78.05
2022-10-11T07:45:53.232Z,77.83
2022-10-11T07:46:40.063Z,77.70
2022-10-11T07:47:27.002Z,77.10
2022-10-11T07:48:13.923Z,76.41
2022-10-11T07:49:00.831Z,75.96
2022-10-11T07:49:47.660Z,75.59
2022-10-11T07:50:35.591Z,75.62
2022-10-11T07:51:24.209Z,75.58
2022-10-11T07:52:11.061Z,75.90
2022-10-11T07:52:58.779Z,76.00
2022-10-11T07:53:48.604Z,76.40
2022-10-11T07:54:35.503Z,76.43
2022-10-11T07:55:22.945Z,76.57
2022-10-11T07:56:12.812Z,76.37
2022-10-11T07:56:59.860Z,75.30
2022-10-11T07:57:47.022Z,75.31
2022-10-11T07:58:33.892Z,74.93
2022-10-11T07:59:20.725Z,74.97
2022-10-11T08:00:08.561Z,75.15
2022-10-11T08:00:55.687Z,73.97
2022-10-11T08:01:42.760Z,73.71
2022-10-11T08:02:29.662Z,73.45
2022-10-11T08:03:17.201Z,72.92
2022-10-11T08:04:04.314Z,72.50
2022-10-11T08:04:51.150Z,72.35
2022-10-11T08:05:39.260Z,72.35
2022-10-11T08:06:31.965Z,72.22
2022-10-11T08:07:18.903Z,72.47
2022-10-11T08:08:05.891Z,73.18
2022-10-11T08:08:52.901Z,72.74
2022-10-11T08:09:39.921Z,71.91
2022-10-11T08:10:27.891Z,71.34
2022-10-11T08:11:32.321Z,70.95
2022-10-11T08:12:19.226Z,71.41
2022-10-11T08:13:06.251Z,70.81
2022-10-11T08:13:53.372Z,69.93
2022-10-11T08:14:41.801Z,69.86
2022-10-11T08:15:29.920Z,69.04
2022-10-11T08:16:17.942Z,68.27
2022-10-11T08:17:05.213Z,68.73
2022-10-11T08:17:52.070Z,68.58
2022-10-11T08:18:39.330Z,68.07
2022-10-11T08:19:26.282Z,67.22
2022-10-11T08:20:13.631Z,66.23
2022-10-11T08:21:00.561Z,64.35
2022-10-11T08:21:47.732Z,64.26
2022-10-11T08:22:34.801Z,62.76
2022-10-11T08:23:21.731Z,61.93
2022-10-11T08:24:09.010Z,62.00
2022-10-11T08:24:55.900Z,62.24
2022-10-11T08:25:45.399Z,62.26
2022-10-11T08:26:33.050Z,62.01
2022-10-11T08:27:19.961Z,62.40
2022-10-11T08:28:07.548Z,61.75
2022-10-11T08:28:54.773Z,60.95
2022-10-11T08:29:41.875Z,60.74
2022-10-11T08:30:28.773Z,60.58
2022-10-11T08:31:16.687Z,60.88
2022-10-11T08:32:03.668Z,60.21
2022-10-11T08:32:50.810Z,60.01
2022-10-11T08:33:37.681Z,59.90
2022-10-11T08:34:25.011Z,60.21
2022-10-11T08:35:11.941Z,59.98
2022-10-11T08:35:59.250Z,59.65
2022-10-11T08:36:46.421Z,59.09
2022-10-11T08:37:33.490Z,58.69
2022-10-11T08:38:20.621Z,59.91
2022-10-11T08:39:07.971Z,58.96
2022-10-11T08:39:55.011Z,58.70
2022-10-11T08:40:48.223Z,58.20
2022-10-11T08:41:44.051Z,58.95
2022-10-11T08:42:33.792Z,59.24
2022-10-11T08:43:38.740Z,59.19
2022-10-11T08:45:09.515Z,59.07
2022-10-11T08:45:53.814Z,59.86
2022-10-11T08:46:44.264Z,59.32
2022-10-11T08:47:36.604Z,59.41
2022-10-11T08:48:37.431Z,59.42
2022-10-11T08:49:27.639Z,60.20
2022-10-11T08:50:22.700Z,59.37
2022-10-11T08:51:25.950Z,60.67
2022-10-11T08:52:28.576Z,60.99
2022-10-11T08:53:33.210Z,61.74
2022-10-11T08:54:46.010Z,60.71
2022-10-11T08:55:53.509Z,60.48
2022-10-11T08:56:42.081Z,60.92
2022-10-11T08:57:31.595Z,60.79
2022-10-11T08:58:23.008Z,60.17
2022-10-11T08:59:12.741Z,59.88
2022-10-11T09:00:04.852Z,60.54
2022-10-11T09:00:58.220Z,60.18
2022-10-11T09:01:50.674Z,61.12
2022-10-11T09:03:07.649Z,60.74
2022-10-11T09:03:55.914Z,60.69
2022-10-11T09:04:42.855Z,61.22
2022-10-11T09:05:36.351Z,61.67
2022-10-11T09:06:45.420Z,61.72
2022-10-11T09:07:47.512Z,61.97
2022-10-11T09:08:52.880Z,62.04
2022-10-11T09:09:49.553Z,62.73
2022-10-11T09:10:36.720Z,62.77
2022-10-11T09:11:35.821Z,62.23
2022-10-11T09:12:50.270Z,61.03
2022-10-11T09:13:59.090Z,61.89
2022-10-11T09:15:12.710Z,62.42
2022-10-11T09:16:11.241Z,62.48
2022-10-11T09:17:13.893Z,62.22
2022-10-11T09:18:16.421Z,62.57
2022-10-11T09:19:03.260Z,62.92
2022-10-11T09:20:14.700Z,62.89
2022-10-11T09:21:45.771Z,62.48
2022-10-11T09:22:32.530Z,62.78
2022-10-11T09:23:36.161Z,61.38
2022-10-11T09:24:32.100Z,61.91
2022-10-11T09:25:22.022Z,61.70
2022-10-11T09:26:29.241Z,60.86
2022-10-11T09:27:33.053Z,61.68
2022-10-11T09:28:57.318Z,61.83
2022-10-11T09:30:07.074Z,59.86
2022-10-11T09:30:56.082Z,60.39
2022-10-11T09:31:48.153Z,59.92
2022-10-11T09:32:40.680Z,60.27
2022-10-11T09:33:45.890Z,59.53
2022-10-11T09:34:34.110Z,58.76
2022-10-11T09:35:22.922Z,58.55
2022-10-11T09:36:18.951Z,58.97
2022-10-11T09:37:32.988Z,59.07
2022-10-11T09:38:40.261Z,59.42
2022-10-11T09:39:33.033Z,58.51
2022-10-11T09:40:37.811Z,59.26
2022-10-11T09:41:59.369Z,59.81
2022-10-11T09:42:46.270Z,59.77
2022-10-11T09:43:33.380Z,59.78
2022-10-11T09:44:23.621Z,59.34
2022-10-11T09:45:18.048Z,60.40
2022-10-11T09:46:21.463Z,60.26
2022-10-11T09:47:15.063Z,60.04
2022-10-11T09:48:03.171Z,59.10
2022-10-11T09:48:51.301Z,58.78
2022-10-11T09:49:41.548Z,59.13
2022-10-11T09:50:30.910Z,59.41
2022-10-11T09:51:22.186Z,58.81
2022-10-11T09:52:16.892Z,58.50
2022-10-11T09:53:05.351Z,58.47
2022-10-11T09:53:56.765Z,58.15
2022-10-11T09:54:46.143Z,58.30
2022-10-11T09:55:40.990Z,58.08
2022-10-11T09:56:30.160Z,57.96
2022-10-11T09:57:34.501Z,58.40
2022-10-11T09:58:32.721Z,57.68
2022-10-11T09:59:36.311Z,57.67
2022-10-11T10:00:28.629Z,57.81
2022-10-11T10:01:26.474Z,57.56
2022-10-11T10:02:16.030Z,59.02
2022-10-11T10:03:04.724Z,58.95
2022-10-11T10:04:08.141Z,58.60
2022-10-11T10:05:15.251Z,58.70
2022-10-11T10:06:06.591Z,58.22
2022-10-11T10:07:10.591Z,58.96
2022-10-11T10:08:04.774Z,59.15
2022-10-11T10:08:52.595Z,59.80
2022-10-11T10:09:39.446Z,59.03
2022-10-11T10:10:43.942Z,59.01
2022-10-11T10:11:37.176Z,59.44
2022-10-11T10:12:30.811Z,58.40
2022-10-11T10:13:28.082Z,58.10
2022-10-11T10:14:23.213Z,58.07
2022-10-11T10:15:19.840Z,58.40
2022-10-11T10:16:11.940Z,58.44
2022-10-11T10:17:08.842Z,58.70
2022-10-11T10:17:56.025Z,58.50
2022-10-11T10:18:48.691Z,58.37
2022-10-11T10:19:49.155Z,58.07
2022-10-11T10:20:36.741Z,58.31
2022-10-11T10:21:35.350Z,57.67
2022-10-11T10:22:28.333Z,58.14
2022-10-11T10:23:27.261Z,58.76
2022-10-11T10:24:29.311Z,58.22
2022-10-11T10:25:27.759Z,58.09
2022-10-11T10:26:16.582Z,58.99
2022-10-11T10:27:24.621Z,58.78
2022-10-11T10:28:22.761Z,58.30
2022-10-11T10:29:09.825Z,58.47
2022-10-11T10:30:16.451Z,58.79
2022-10-11T10:31:03.670Z,58.84
2022-10-11T10:32:14.351Z,58.65
2022-10-11T10:33:05.181Z,58.78
2022-10-11T10:33:53.471Z,59.13
2022-10-11T10:34:51.920Z,58.88
2022-10-11T10:35:38.902Z,58.63
2022-10-11T10:36:36.180Z,58.93
2022-10-11T10:37:46.465Z,59.68
2022-10-11T10:38:37.640Z,59.89
2022-10-11T10:39:36.905Z,59.02
2022-10-11T10:40:30.523Z,59.15
2022-10-11T10:41:18.894Z,58.74
2022-10-11T10:42:13.597Z,59.06
2022-10-11T10:43:00.397Z,59.16
2022-10-11T10:43:53.951Z,58.90
2022-10-11T10:44:40.819Z,59.00
2022-10-11T10:45:44.821Z,59.01
2022-10-11T10:46:54.062Z,59.18
2022-10-11T10:47:58.689Z,59.64
2022-10-11T10:50:53.024Z,58.44
2022-10-11T10:51:39.748Z,58.94
2022-10-11T10:52:48.114Z,58.89
2022-10-11T10:54:06.972Z,59.04
2022-10-11T10:55:00.740Z,59.39
2022-10-11T10:56:09.464Z,58.54
2022-10-11T10:57:02.950Z,59.38
2022-10-11T10:58:18.872Z,59.88
2022-10-11T10:59:50.609Z,60.88
2022-10-11T11:00:42.852Z,60.35
2022-10-11T11:01:32.578Z,60.61
2022-10-11T11:02:40.172Z,60.41
2022-10-11T11:03:53.984Z,60.74
2022-10-11T11:04:45.045Z,60.43
2022-10-11T11:05:40.968Z,60.61
2022-10-11T11:06:51.275Z,60.50
2022-10-11T11:08:16.106Z,60.70
2022-10-11T11:09:38.181Z,61.37
2022-10-11T11:10:37.285Z,61.41
2022-10-11T11:11:30.251Z,61.52
2022-10-11T11:12:38.480Z,61.23
2022-10-11T11:13:42.868Z,61.51
2022-10-11T11:14:44.625Z,61.38
2022-10-11T11:16:10.291Z,61.47
2022-10-11T11:17:34.072Z,62.01
2022-10-11T11:18:28.862Z,60.77
2022-10-11T11:19:33.971Z,60.80
2022-10-11T11:20:21.531Z,61.73
2022-10-11T11:21:23.090Z,61.80
2022-10-11T11:22:32.932Z,62.07
2022-10-11T11:23:36.863Z,62.25
2022-10-11T11:24:36.471Z,61.95
2022-10-11T11:25:26.340Z,63.03
2022-10-11T11:26:26.911Z,62.68
2022-10-11T11:27:25.703Z,63.47
2022-10-11T11:28:38.917Z,63.65
2022-10-11T11:29:44.580Z,63.50
2022-10-11T11:30:41.571Z,62.87
2022-10-11T11:31:31.392Z,63.17
2022-10-11T11:32:30.443Z,63.34
2022-10-11T11:33:17.270Z,63.59
2022-10-11T11:34:23.911Z,63.25
2022-10-11T11:35:17.943Z,62.77
2022-10-11T11:36:19.103Z,63.49
2022-10-11T11:37:11.123Z,63.62
2022-10-11T11:38:06.371Z,62.02
2022-10-11T11:39:00.196Z,61.54
2022-10-11T11:39:57.580Z,61.44
2022-10-11T11:40:47.611Z,61.32
2022-10-11T11:41:45.530Z,61.38
2022-10-11T11:42:34.917Z,61.51
2022-10-11T11:43:28.691Z,61.21
2022-10-11T11:44:27.486Z,61.66
2022-10-11T11:45:22.820Z,61.77
2022-10-11T11:46:15.888Z,61.84
2022-10-11T11:47:17.949Z,61.21
2022-10-11T11:48:19.120Z,60.45
2022-10-11T11:49:13.900Z,60.46
2022-10-11T11:50:15.958Z,62.20